New Orleans, LA (70160)

6:14 AM CDT on April 30, 2017 (GMT -0500)
Downtown CBD New Orleans | | Change Station
Active Advisory: Coastal Flood Advisory Active Notice: Coastal Flood Advisory

Elev 28 ft 29.94 °N, 90.07 °W | Updated 4 seconds ago

Overcast
Overcast
79.2 °F
Feels Like 83 °F
N
5.6
Wind Variable Wind from SSE
Gusts 7.6 mph

Today
High -- | Low -- °F
--% Chance of Precip.
Yesterday
High -- | Low -- °F
Precip. -- in
Pressure 29.77 in
Visibility 10.0 miles
Clouds Mostly Cloudy 2000 ft
Overcast 3200 ft
Heat Index 83 °F
Dew Point 72 °F
Humidity 80%
Rainfall 0.00 in
Snow Depth Not available.
6:18 AM 7:37 PM
Waxing Crescent, 22% visible
METAR KNEW 301053Z AUTO 16025G31KT 10SM BKN020 OVC032 26/23 A2979 RMK AO2 PK WND 15035/1011 SLP081 T02610228
Pressure 29.77 in
Visibility 10.0 miles
Clouds Mostly Cloudy 2000 ft
Overcast 3200 ft
Heat Index 83 °F
Dew Point 72 °F
Humidity 80%
Rainfall 0.00 in
Snow Depth Not available.
6:18 AM 7:37 PM
Waxing Crescent, 22% visible
METAR KNEW 301053Z AUTO 16025G31KT 10SM BKN020 OVC032 26/23 A2979 RMK AO2 PK WND 15035/1011 SLP081 T02610228

Get Your Daily Forecast Email!

Thanks for signing up!

Be on the lookout for a verification email in your inbox.

You'll start receiving severe weather alerts in your inbox..

×

10-Day Weather Forecast

Almanac

Astronomy

Apr. 30, 2017 Rise Set
Actual Time
Civil Twilight
Nautical Twilight
Astronomical Twilight
Moon
Length of Visible Light
Length of Day
Tomorrow will be .
, % of the Moon is Illuminated

Today's Extremes

State Highs State Lows

Community

WunderPhotos

WunderBlog® & News

Nearby

Air Quality

  Air Quality AQ Index Pollutant
Not available.

Snow Depth

Station Depth Elevation

Earthquake Activity

City Distance Mag. Time & Date
Minimum magnitude displayed is 2.5.

Coastal Water Temperatures

Place Temperature

Stations

Nearby Weather Stations

Station Location Temp. Windchill Dew Point Humidity Wind Precip. Elev Updated Type
                   

Watches & Warnings

Coastal Flood Advisory
Issued: 4:08 AM CDT Apr. 30, 2017 – National Weather Service

... Coastal flood advisory remains in effect until midnight CDT
tonight...

* coastal flooding... tides 2 feet above normal today.

* Timing... astronomical high tides will be in the late morning
through early afternoon hours today.

* Impacts... moderate flooding of low lying areas and access roads
near tidal lakes... bays and inlets as well as the open coast
outside the hurricane protection levee systems.

Precautionary/preparedness actions...

A coastal flood advisory indicates that onshore winds and tides
will combine to generate flooding of low areas along the shore.